»·PEaware :: N210AR KBUR-KSNA

N210AR :: KBUR-KSNA

FLIGHT INFORMATION

Flight Status: Arrived
Operator: Privately registered:
United States
More flights under this callsign
Pilot: Max S. (16657)
Aircraft: CESSNA 172 SKYHAWK
(C172)
More flights by this aircraft type
Origin: KBUR Bob Hope-Burbank
United States
Destination: KSNA John Wayne-Orange Co
United States
More flights between these airports :: More routes between these airports
Route: SMO VPLSR VPLHP
File this flight plan on PilotEdge
Remarks:
Altitude:
(Current/Filed)
2,500ft
Speed:
(Current/Filed)
100kts
Departed: 17-Jun-20 09:30 AM
Arrived: 17-Jun-20 10:05 AM
Distance/Time
Traveled:
40nm/0:35
Distance/Time
To Go:
Arrived

Flight Plot

Page will automatically refresh every two minutes.

Flight plan parsing failed; only flown route is shown


Map Options




Map Legend


Flown Route
Filed Route
Departure Airport
Arrival Airport
Navaid (VOR, NDB)
Fix

Horizontal Profiles

Position Reports

Time Latitude Longitude Heading Altitude Ground
Speed
17-Jun-20 09:06 34.196224 -118.367802 1 725ft 0kts
17-Jun-20 09:07 34.196224 -118.367802 1 725ft 0kts
17-Jun-20 09:08 34.196224 -118.367802 1 725ft 0kts
17-Jun-20 09:09 34.196224 -118.367802 1 725ft 0kts
17-Jun-20 09:10 34.196224 -118.367802 1 725ft 0kts
17-Jun-20 09:11 34.196224 -118.367802 1 725ft 0kts
17-Jun-20 09:12 34.196224 -118.367802 1 725ft 0kts
17-Jun-20 09:13 34.196224 -118.367802 1 725ft 0kts
17-Jun-20 09:14 34.196224 -118.367802 1 725ft 0kts
17-Jun-20 09:15 34.196224 -118.367802 1 725ft 0kts
17-Jun-20 09:17 34.196224 -118.367802 1 725ft 0kts
17-Jun-20 09:18 34.196224 -118.367802 1 725ft 0kts
17-Jun-20 09:19 34.196224 -118.367802 1 725ft 0kts
17-Jun-20 09:20 34.196224 -118.367802 1 725ft 0kts
17-Jun-20 09:21 34.196224 -118.367802 1 725ft 0kts
17-Jun-20 09:22 34.196224 -118.367802 1 725ft 0kts
17-Jun-20 09:23 34.196224 -118.367802 1 725ft 0kts
17-Jun-20 09:24 34.196224 -118.367802 1 725ft 0kts
17-Jun-20 09:25 34.196277 -118.367777 39 725ft 2kts
17-Jun-20 09:26 34.196936 -118.367099 270 724ft 6kts
17-Jun-20 09:27 34.197038 -118.368857 317 728ft 0kts
17-Jun-20 09:28 34.197037 -118.368857 317 728ft 0kts
17-Jun-20 09:29 34.197805 -118.368621 62 730ft 16kts
17-Jun-20 09:30 34.197539 -118.347693 125 1388ft 76kts
17-Jun-20 09:31 34.181403 -118.360401 224 2337ft 82kts
17-Jun-20 09:32 34.158544 -118.379548 196 2452ft 115kts
17-Jun-20 09:32 34.136210 -118.393855 206 2542ft 109kts
17-Jun-20 09:34 34.104293 -118.410615 203 2573ft 109kts
17-Jun-20 09:35 34.076782 -118.425271 195 2641ft 107kts
17-Jun-20 09:35 34.055439 -118.439060 200 2776ft 104kts
17-Jun-20 09:37 34.023657 -118.451285 190 2936ft 103kts
17-Jun-20 09:37 34.000586 -118.450074 124 2498ft 102kts
17-Jun-20 09:38 33.978784 -118.429005 134 2422ft 97kts
17-Jun-20 09:39 33.955235 -118.410106 149 2518ft 114kts
17-Jun-20 09:40 33.928262 -118.389476 146 2486ft 112kts
17-Jun-20 09:41 33.902107 -118.369919 146 2552ft 110kts
17-Jun-20 09:42 33.878783 -118.348458 137 2478ft 103kts
17-Jun-20 09:43 33.856170 -118.327038 149 2397ft 107kts
17-Jun-20 09:44 33.831600 -118.317370 164 3110ft 95kts
17-Jun-20 09:45 33.801634 -118.310413 166 3562ft 119kts
17-Jun-20 09:46 33.769490 -118.309017 205 3460ft 122kts
17-Jun-20 09:47 33.741470 -118.326210 176 3458ft 105kts
17-Jun-20 09:48 33.709227 -118.320061 157 3632ft 127kts
17-Jun-20 09:49 33.693367 -118.288970 104 3669ft 110kts
17-Jun-20 09:50 33.686399 -118.253728 86 3599ft 115kts
17-Jun-20 09:51 33.690452 -118.215416 89 3526ft 108kts
17-Jun-20 09:52 33.695455 -118.179258 75 3559ft 112kts
17-Jun-20 09:53 33.707807 -118.144667 77 3577ft 113kts
17-Jun-20 09:54 33.709059 -118.107133 99 3564ft 113kts
17-Jun-20 09:55 33.705344 -118.069604 93 3563ft 113kts
17-Jun-20 09:56 33.707966 -118.031947 82 3465ft 110kts
17-Jun-20 09:57 33.712510 -117.995273 107 2785ft 109kts
17-Jun-20 09:58 33.702387 -117.962310 110 2221ft 104kts
17-Jun-20 09:59 33.693964 -117.929109 112 1669ft 102kts
17-Jun-20 10:00 33.684717 -117.897002 114 1022ft 100kts
17-Jun-20 10:01 33.690019 -117.874677 26 836ft 72kts
17-Jun-20 10:02 33.697495 -117.859186 130 652ft 68kts
17-Jun-20 10:03 33.681641 -117.865120 199 110ft 61kts
17-Jun-20 10:04 33.673269 -117.870324 207 60ft 25kts
17-Jun-20 10:05 33.668936 -117.871327 149 60ft 11kts
17-Jun-20 10:06 33.666024 -117.873765 203 60ft 16kts
17-Jun-20 10:07 33.666619 -117.872871 32 60ft 6kts
17-Jun-20 10:08 33.667483 -117.871412 85 60ft 1kts
17-Jun-20 10:09 33.667525 -117.871367 220 60ft 0kts

Navigation Log

Ident Type
Flight plan parsing failed, navigation log unavailable